Bloomington, IL (61701)

7:28 PM CST on December 04, 2016 (GMT -0600)
| | Change Station

Elev -9999 ft 0.00 °N, 0.00 °E | Updated

Cloudy
Cloudy
32 °F
Feels Like 24 °F
N
10
Wind Variable Wind from West
Gusts 16 mph

Today
High -- | Low -- °F
--% Chance of Precip.
Yesterday
High -- | Low -- °F
Precip. -- in
Pressure 30.00 in
Visibility 4.0 miles
Clouds Overcast 500 ft
Windchill 24 °F
Dew Point 31 °F
Humidity 94%
Rainfall --
Snow Depth Not available.
7:03 AM 4:29 PM
Waxing Crescent, 27% visible
METAR KBMI 050056Z 28006KT 4SM -SN BR OVC005 00/M01 A2993 RMK AO2 UPB45E47SNB47 CIG 003V007 SLP159 P0000 T00001006
Pressure 30.00 in
Visibility 4.0 miles
Clouds Overcast 500 ft
Windchill 24 °F
Dew Point 31 °F
Humidity 94%
Rainfall --
Snow Depth Not available.
7:03 AM 4:29 PM
Waxing Crescent, 27% visible
METAR KBMI 050056Z 28006KT 4SM -SN BR OVC005 00/M01 A2993 RMK AO2 UPB45E47SNB47 CIG 003V007 SLP159 P0000 T00001006

10-Day Weather Forecast

Almanac

Astronomy

Dec. 04, 2016 Rise Set
Actual Time
Civil Twilight
Nautical Twilight
Astronomical Twilight
Moon
Length of Visible Light
Length of Day
Tomorrow will be .
, % of the Moon is Illuminated

Today's Extremes

State Highs State Lows

Community

WunderPhotos

Upload Photos

1,955,734 photos uploaded!

WunderBlog® & News

Nearby

Air Quality

  Air Quality AQ Index Pollutant
Not available.

Snow Depth

Station Depth Elevation

Earthquake Activity

City Distance Mag. Time & Date
Minimum magnitude displayed is 2.5.

Coastal Water Temperatures

Place Temperature

Stations

Nearby Weather Stations

Station Location Temp. Windchill Dew Point Humidity Wind Precip. Elev Updated Type
                   

Watches & Warnings

There are currently no watches in effect.